Time;durP1;ratioP1;P1;durP2;ratioP2;P2;SDS_P1;SDS_P2;PMS_P1;PMS_P2;Temp;Humidity;BMP_temperature;BMP_pressure;BME280_temperature;BME280_humidity;BME280_pressure;Samples;Min_cycle;Max_cycle;Signal;HPM_P1;HPM_P2
2022/04/21 00:02:01;;;;;;;5.68;3.70;;;;;;;9.10;47.56;98424.91;2623223;54;20026;-64
2022/04/21 00:04:33;;;;;;;6.05;3.53;;;;;;;9.06;47.31;98425.44;2622867;54;20045;-63
2022/04/21 00:07:03;;;;;;;4.53;3.33;;;;;;;8.96;47.74;98428.44;2623004;54;20045;-63
2022/04/21 00:09:35;;;;;;;5.85;3.60;;;;;;;8.88;47.75;98421.47;2622733;54;20099;-64
2022/04/21 00:12:05;;;;;;;6.43;3.38;;;;;;;8.83;47.71;98425.69;2622335;54;20069;-63
2022/04/21 00:14:35;;;;;;;3.60;2.97;;;;;;;8.82;48.20;98422.25;2623013;54;20046;-65
2022/04/21 00:17:05;;;;;;;4.60;3.08;;;;;;;8.82;48.37;98426.72;2622699;54;20031;-64
2022/04/21 00:19:34;;;;;;;5.88;3.10;;;;;;;8.84;48.35;98417.59;2623241;54;20030;-62
2022/04/21 00:24:49;;;;;;;3.17;2.88;;;;;;;8.82;48.54;98419.63;2623057;54;20027;-64
2022/04/21 00:27:20;;;;;;;6.68;3.25;;;;;;;8.79;48.11;98413.91;2622550;54;20038;-64
2022/04/21 00:29:49;;;;;;;3.42;3.10;;;;;;;8.78;48.58;98417.56;2622583;47;20042;-63
2022/04/21 00:32:19;;;;;;;4.25;3.17;;;;;;;8.80;48.47;98411.06;2624054;39;20418;-62
2022/04/21 00:34:49;;;;;;;3.70;3.10;;;;;;;8.75;48.06;98410.84;2623338;54;20026;-62
2022/04/21 00:37:18;;;;;;;3.88;2.65;;;;;;;8.72;48.24;98405.94;2622739;54;20089;-63
2022/04/21 00:39:51;;;;;;;3.88;2.83;;;;;;;8.70;48.24;98404.53;2622768;54;20045;-63
2022/04/21 00:42:21;;;;;;;3.75;3.05;;;;;;;8.71;48.06;98406.13;2623065;54;20045;-63
2022/04/21 00:44:51;;;;;;;4.40;3.35;;;;;;;8.63;48.39;98404.44;2622581;47;20167;-62
2022/04/21 00:47:22;;;;;;;6.72;3.80;;;;;;;8.58;48.40;98398.94;2622796;54;20037;-64
2022/04/21 00:49:52;;;;;;;7.90;4.38;;;;;;;8.60;48.46;98397.72;2622825;54;20042;-63
2022/04/21 00:52:22;;;;;;;6.80;3.83;;;;;;;8.51;48.81;98393.59;2623060;39;20423;-64
2022/04/21 00:54:55;;;;;;;4.72;3.45;;;;;;;8.37;48.79;98395.31;2622123;46;20023;-64
2022/04/21 00:57:24;;;;;;;3.50;3.17;;;;;;;8.21;49.55;98395.53;2622683;54;20034;-63
2022/04/21 00:59:55;;;;;;;7.18;3.17;;;;;;;8.09;49.90;98389.13;2622625;54;20038;-62
2022/04/21 01:05:08;;;;;;;3.97;3.08;;;;;;;8.02;49.93;98385.59;2622912;54;20551;-63
2022/04/21 01:07:37;;;;;;;3.10;2.75;;;;;;;8.01;50.30;98386.59;2622729;39;20419;-64
2022/04/21 01:10:11;;;;;;;3.70;3.08;;;;;;;8.01;50.37;98384.78;2621611;54;20045;-63
2022/04/21 01:12:43;;;;;;;5.07;3.10;;;;;;;8.00;50.46;98385.78;2622854;54;20038;-63
2022/04/21 01:15:13;;;;;;;4.63;3.08;;;;;;;7.86;51.12;98386.63;2623265;46;20065;-64
2022/04/21 01:17:42;;;;;;;3.15;2.75;;;;;;;7.87;50.94;98386.44;2621906;54;20034;-63
2022/04/21 01:20:17;;;;;;;3.70;3.17;;;;;;;7.81;51.28;98384.56;2623577;39;20427;-64
2022/04/21 01:22:47;;;;;;;5.40;3.17;;;;;;;7.83;51.25;98385.19;2623834;39;20419;-64
2022/04/21 01:25:17;;;;;;;4.22;3.28;;;;;;;7.83;51.65;98390.44;2622183;39;20442;-64
2022/04/21 01:27:49;;;;;;;4.63;3.10;;;;;;;7.92;51.47;98391.97;2620767;54;20038;-64
2022/04/21 01:30:19;;;;;;;6.22;3.40;;;;;;;7.94;51.70;98383.88;2621949;54;20038;-62
2022/04/21 01:32:49;;;;;;;5.55;3.63;;;;;;;7.89;52.09;98384.44;2622231;46;20053;-65
2022/04/21 01:35:21;;;;;;;5.50;3.40;;;;;;;7.97;52.21;98382.72;2621692;54;20038;-64
2022/04/21 01:43:16;;;;;;;4.15;3.45;;;;;;;7.77;52.64;98385.13;2621243;39;20424;-66
2022/04/21 01:45:45;;;;;;;4.82;3.28;;;;;;;7.67;53.27;98383.59;2622478;54;20034;-64
2022/04/21 01:48:15;;;;;;;3.53;3.20;;;;;;;7.59;53.33;98381.06;2620350;47;20030;-65
2022/04/21 01:50:48;;;;;;;3.70;3.22;;;;;;;7.55;53.32;98386.84;2620482;39;20160;-64
2022/04/21 01:53:17;;;;;;;5.35;3.30;;;;;;;7.52;53.51;98382.78;2618876;47;20027;-65
2022/04/21 01:55:47;;;;;;;4.80;3.30;;;;;;;7.47;53.72;98381.69;2619559;54;20034;-65
2022/04/21 01:58:17;;;;;;;5.55;3.65;;;;;;;7.58;53.70;98394.38;2619096;54;20027;-63
2022/04/21 02:00:47;;;;;;;3.35;3.03;;;;;;;7.68;53.84;98382.59;2619163;47;20118;-64
2022/04/21 02:03:16;;;;;;;4.07;3.50;;;;;;;7.78;53.53;98378.84;2621034;39;20450;-64
2022/04/21 02:05:49;;;;;;;4.78;3.83;;;;;;;7.87;53.70;98373.28;2621881;39;20416;-64
2022/04/21 02:08:18;;;;;;;7.32;3.78;;;;;;;7.87;53.57;98377.72;2622536;39;20426;-64
2022/04/21 02:10:48;;;;;;;5.32;3.47;;;;;;;7.79;53.78;98378.66;2623328;54;20130;-65
2022/04/21 02:13:17;;;;;;;4.20;3.80;;;;;;;7.72;54.08;98376.97;2624163;39;20418;-64
2022/04/21 02:15:47;;;;;;;4.13;3.53;;;;;;;7.65;54.67;98374.25;2624375;54;20030;-65
2022/04/21 02:18:17;;;;;;;6.07;3.72;;;;;;;7.57;54.80;98374.34;2623925;54;20129;-65
2022/04/21 02:20:49;;;;;;;11.63;4.10;;;;;;;7.50;54.70;98376.88;2624243;54;20038;-64
2022/04/21 02:23:19;;;;;;;4.82;3.22;;;;;;;7.41;54.81;98372.72;2625138;39;20422;-65
2022/04/21 02:25:49;;;;;;;4.88;3.63;;;;;;;7.37;54.96;98372.28;2622747;47;20048;-64
2022/04/21 02:28:18;;;;;;;6.80;3.70;;;;;;;7.33;55.68;98370.19;2622125;54;20062;-65
2022/04/21 02:30:48;;;;;;;4.80;4.07;;;;;;;7.41;55.61;98373.53;2622694;47;20026;-66
2022/04/21 02:33:18;;;;;;;7.70;4.18;;;;;;;7.53;54.99;98370.47;2622916;54;20027;-64
2022/04/21 02:35:50;;;;;;;6.70;3.75;;;;;;;7.59;55.10;98367.06;2622902;46;20049;-64
2022/04/21 02:38:20;;;;;;;6.80;3.60;;;;;;;7.61;54.51;98365.91;2623719;54;20037;-64
2022/04/21 02:40:49;;;;;;;4.65;3.72;;;;;;;7.63;54.52;98370.97;2623219;54;20034;-63
2022/04/21 02:43:19;;;;;;;7.25;4.63;;;;;;;7.58;54.42;98376.78;2623667;54;20035;-65
2022/04/21 02:45:49;;;;;;;4.72;3.63;;;;;;;7.39;55.28;98369.47;2623756;54;20551;-65
2022/04/21 02:48:19;;;;;;;5.03;4.40;;;;;;;7.33;55.97;98368.38;2622774;54;20034;-67
2022/04/21 02:50:52;;;;;;;5.30;3.72;;;;;;;7.23;56.36;98362.59;2623264;54;20038;-65
2022/04/21 02:57:19;;;;;;;6.78;5.03;;;;;;;7.34;55.85;98361.31;2623430;54;20038;-70
2022/04/21 02:58:55;;;;;;;6.55;3.95;;;;;;;7.34;56.00;98354.22;2623082;54;20031;-65
2022/04/21 03:01:25;;;;;;;7.07;4.50;;;;;;;7.25;55.90;98344.81;2623467;54;20055;-65
2022/04/21 03:03:56;;;;;;;5.38;3.75;;;;;;;7.15;56.65;98347.72;2623810;54;20037;-65
2022/04/21 03:06:28;;;;;;;6.68;4.80;;;;;;;7.24;56.53;98353.69;2624433;39;20401;-64
2022/04/21 03:08:57;;;;;;;5.47;4.13;;;;;;;7.23;56.78;98343.38;2623323;54;20038;-64
2022/04/21 03:11:27;;;;;;;4.63;3.90;;;;;;;7.16;57.01;98338.84;2623400;54;20030;-65
2022/04/21 03:13:57;;;;;;;7.68;3.85;;;;;;;7.00;57.01;98346.09;2623585;54;20030;-64
2022/04/21 03:16:26;;;;;;;5.15;4.32;;;;;;;7.01;57.14;98348.53;2623503;54;20042;-65
2022/04/21 03:18:56;;;;;;;8.88;4.38;;;;;;;7.02;57.49;98349.34;2624247;39;20474;-63
2022/04/21 03:24:22;;;;;;;5.20;3.90;;;;;;;7.13;57.03;98351.53;2623032;54;20042;-64
2022/04/21 03:26:53;;;;;;;7.95;4.53;;;;;;;7.15;57.16;98352.16;2623679;54;20019;-62
2022/04/21 03:29:23;;;;;;;5.97;4.28;;;;;;;7.14;57.03;98346.09;2622654;54;20045;-64
2022/04/21 03:31:53;;;;;;;5.70;4.70;;;;;;;7.09;57.01;98339.75;2623492;54;20082;-65
2022/04/21 03:34:23;;;;;;;5.70;4.20;;;;;;;6.95;57.28;98354.53;2622812;54;20034;-64
2022/04/21 03:36:55;;;;;;;4.60;4.20;;;;;;;6.90;57.71;98356.88;2622936;54;20042;-64
2022/04/21 03:39:25;;;;;;;5.00;4.07;;;;;;;6.82;57.45;98356.97;2622664;54;20038;-65
2022/04/21 03:41:55;;;;;;;6.30;4.40;;;;;;;6.73;57.91;98358.00;2623642;54;20031;-65
2022/04/21 03:44:25;;;;;;;6.18;4.68;;;;;;;6.66;58.08;98353.50;2623848;54;20038;-64
2022/04/21 03:46:57;;;;;;;6.25;4.43;;;;;;;6.67;58.45;98362.19;2623504;54;20038;-64
2022/04/21 03:49:28;;;;;;;5.78;4.82;;;;;;;6.69;58.14;98357.53;2623461;54;20053;-65
2022/04/21 03:52:00;;;;;;;6.32;4.35;;;;;;;6.63;59.03;98359.09;2624006;39;20443;-65
2022/04/21 03:54:30;;;;;;;4.70;4.22;;;;;;;6.70;58.17;98353.94;2623058;54;20030;-64
2022/04/21 03:57:00;;;;;;;6.25;4.22;;;;;;;6.65;58.51;98357.13;2621998;54;20039;-64
2022/04/21 03:59:29;;;;;;;7.45;4.60;;;;;;;6.67;58.34;98341.97;2622914;54;20042;-63
2022/04/21 04:02:02;;;;;;;5.80;5.00;;;;;;;6.54;58.51;98354.09;2622716;54;20047;-64
2022/04/21 04:04:32;;;;;;;6.03;4.72;;;;;;;6.38;58.89;98357.66;2622330;54;20110;-64
2022/04/21 04:12:34;;;;;;;7.05;4.82;;;;;;;6.18;59.30;98349.44;2621965;54;20045;-65
2022/04/21 04:15:06;;;;;;;8.25;4.22;;;;;;;6.15;59.38;98347.16;2622567;54;20039;-64
2022/04/21 04:17:36;;;;;;;6.07;4.50;;;;;;;6.10;59.52;98354.75;2617912;54;20053;-64
2022/04/21 04:20:07;;;;;;;7.13;4.82;;;;;;;6.07;59.29;98361.16;2618882;39;20421;-65
2022/04/21 04:22:40;;;;;;;7.15;4.47;;;;;;;6.07;59.48;98358.53;2618518;54;20026;-65
2022/04/21 04:25:11;;;;;;;5.35;4.80;;;;;;;6.17;59.34;98359.13;2619276;39;20434;-64
2022/04/21 04:27:41;;;;;;;6.57;4.15;;;;;;;6.16;58.80;98367.16;2617984;39;20426;-64
2022/04/21 04:30:12;;;;;;;6.53;4.60;;;;;;;6.10;59.03;98354.75;2618115;54;20035;-64
2022/04/21 04:32:41;;;;;;;5.03;4.35;;;;;;;6.03;59.11;98362.50;2618706;54;20034;-64
2022/04/21 04:35:12;;;;;;;6.03;4.82;;;;;;;6.03;59.35;98364.31;2618243;54;20049;-64
2022/04/21 04:37:44;;;;;;;9.68;5.32;;;;;;;6.00;59.43;98365.50;2618116;54;20037;-64
2022/04/21 04:40:17;;;;;;;12.02;5.95;;;;;;;5.91;59.62;98364.69;2618419;54;20028;-64
2022/04/21 04:42:44;;;;;;;9.40;6.03;;;;;;;5.91;60.32;98356.00;2618916;39;20482;-64
2022/04/21 04:47:59;;;;;;;9.98;7.10;;;;;;;6.02;59.63;98360.06;2617631;39;20434;-65
2022/04/21 04:50:29;;;;;;;9.00;6.43;;;;;;;6.13;59.53;98357.03;2618218;54;20034;-63
2022/04/21 04:53:02;;;;;;;6.68;4.32;;;;;;;6.22;59.38;98366.47;2619383;31;20555;-64
2022/04/21 04:55:32;;;;;;;10.55;4.63;;;;;;;6.30;59.26;98360.34;2619800;54;20086;-65
2022/04/21 04:58:02;;;;;;;9.40;5.30;;;;;;;6.27;58.93;98373.81;2621205;54;20030;-64
2022/04/21 05:00:32;;;;;;;8.45;5.38;;;;;;;6.28;59.28;98363.13;2621600;54;20038;-65
2022/04/21 05:03:01;;;;;;;5.63;4.45;;;;;;;6.38;59.11;98363.72;2618643;39;20450;-64
2022/04/21 05:05:31;;;;;;;6.00;4.85;;;;;;;6.41;58.62;98367.81;2618647;54;20070;-65
2022/04/21 05:08:06;;;;;;;7.93;5.47;;;;;;;6.38;58.72;98361.09;2618221;54;20570;-65
2022/04/21 05:10:35;;;;;;;9.45;7.00;;;;;;;6.37;58.70;98364.72;2618013;47;20054;-64
2022/04/21 05:13:05;;;;;;;7.82;5.47;;;;;;;6.38;58.86;98363.72;2619178;39;20471;-64
2022/04/21 05:15:35;;;;;;;5.95;5.00;;;;;;;6.35;58.76;98358.00;2617674;51;20030;-64
2022/04/21 05:18:05;;;;;;;8.50;5.97;;;;;;;6.33;58.92;98360.00;2618127;54;20030;-65
2022/04/21 05:20:35;;;;;;;5.70;5.07;;;;;;;6.36;58.43;98355.19;2618209;54;20031;-65
2022/04/21 05:23:09;;;;;;;8.43;6.00;;;;;;;6.36;59.02;98351.75;2617870;54;20023;-63
2022/04/21 05:25:40;;;;;;;13.70;5.07;;;;;;;6.39;58.60;98349.59;2618276;54;20035;-65
2022/04/21 05:28:12;;;;;;;15.25;5.88;;;;;;;6.37;59.04;98356.03;2618059;54;20027;-65
2022/04/21 05:33:26;;;;;;;9.43;5.18;;;;;;;6.58;59.20;98350.94;2618338;54;20059;-65
2022/04/21 05:35:57;;;;;;;8.98;5.30;;;;;;;6.58;58.96;98350.94;2618234;54;20037;-64
2022/04/21 05:38:30;;;;;;;8.18;5.45;;;;;;;6.59;59.33;98349.13;2617772;54;20038;-65
2022/04/21 05:41:01;;;;;;;8.18;5.60;;;;;;;6.67;59.02;98341.16;2617424;47;20026;-64
2022/04/21 05:43:35;;;;;;;7.97;5.78;;;;;;;6.74;59.39;98347.34;2617468;54;20061;-65
2022/04/21 05:46:05;;;;;;;8.13;5.93;;;;;;;6.80;59.22;98349.25;2618161;47;20582;-64
2022/04/21 05:48:36;;;;;;;12.43;5.90;;;;;;;6.79;59.15;98346.81;2618348;54;20041;-64
2022/04/21 05:51:06;;;;;;;15.57;6.72;;;;;;;6.79;59.48;98345.00;2619351;54;20030;-64
2022/04/21 05:53:40;;;;;;;25.08;7.28;;;;;;;6.94;59.39;98345.81;2619257;54;20037;-64
2022/04/21 05:56:12;;;;;;;15.73;6.32;;;;;;;7.04;59.33;98345.53;2619280;54;20027;-64
2022/04/21 05:58:41;;;;;;;13.32;6.63;;;;;;;7.09;58.91;98343.19;2619091;54;20026;-64
2022/04/21 06:01:13;;;;;;;9.55;6.60;;;;;;;7.18;59.02;98346.53;2618807;39;20450;-64
2022/04/21 06:03:42;;;;;;;11.27;6.53;;;;;;;7.27;59.21;98342.03;2619005;54;20031;-64
2022/04/21 06:06:13;;;;;;;13.75;7.38;;;;;;;7.39;59.18;98341.38;2619009;54;20053;-64
2022/04/21 06:08:45;;;;;;;6.88;5.95;;;;;;;7.45;58.30;98342.44;2618698;39;20460;-64
2022/04/21 06:11:16;;;;;;;9.35;6.93;;;;;;;7.51;58.44;98340.88;2619367;39;20805;-64
2022/04/21 06:13:46;;;;;;;10.27;6.65;;;;;;;7.54;58.88;98337.88;2618849;54;20077;-64
2022/04/21 06:16:17;;;;;;;9.55;6.97;;;;;;;7.61;58.73;98341.41;2619425;39;20422;-65
2022/04/21 06:18:47;;;;;;;9.48;7.13;;;;;;;7.73;58.93;98339.13;2618527;54;20027;-63
2022/04/21 06:21:17;;;;;;;7.47;6.78;;;;;;;7.79;58.79;98333.91;2619075;54;20073;-63
2022/04/21 06:23:49;;;;;;;9.02;6.55;;;;;;;7.87;58.48;98331.16;2619293;39;20480;-63
2022/04/21 06:26:19;;;;;;;8.93;8.02;;;;;;;7.95;58.39;98333.69;2617960;46;20026;-64
2022/04/21 06:28:48;;;;;;;18.58;12.50;;;;;;;8.06;58.51;98335.00;2618011;47;20027;-64
2022/04/21 06:31:18;;;;;;;17.92;12.50;;;;;;;8.17;57.84;98339.78;2619003;54;20034;-64
2022/04/21 06:33:48;;;;;;;13.25;7.90;;;;;;;8.29;58.18;98334.03;2618152;54;20038;-64
2022/04/21 06:36:17;;;;;;;15.70;8.85;;;;;;;8.41;57.72;98335.97;2618235;47;20037;-64
2022/04/21 06:38:51;;;;;;;7.93;7.13;;;;;;;8.50;57.18;98334.03;2617988;54;20026;-64
2022/04/21 06:41:20;;;;;;;9.85;7.10;;;;;;;8.57;57.51;98337.53;2618862;54;20061;-67
2022/04/21 06:49:14;;;;;;;9.77;7.40;;;;;;;9.01;56.74;98332.94;2618439;54;20039;-65
2022/04/21 06:51:44;;;;;;;8.45;7.32;;;;;;;9.13;56.44;98320.84;2618637;54;20042;-65
2022/04/21 06:54:16;;;;;;;9.05;6.95;;;;;;;9.25;56.20;98318.47;2619227;39;20447;-65
2022/04/21 06:56:48;;;;;;;16.30;11.77;;;;;;;9.38;56.31;98323.81;2618576;54;20031;-65
2022/04/21 06:59:18;;;;;;;11.60;9.23;;;;;;;9.50;55.65;98321.41;2617909;47;20027;-63
2022/04/21 07:01:48;;;;;;;10.05;7.78;;;;;;;9.62;55.15;98314.56;2618388;39;20459;-64
2022/04/21 07:04:20;;;;;;;9.10;7.43;;;;;;;9.67;55.18;98312.97;2618102;54;20041;-64
2022/04/21 07:06:49;;;;;;;13.10;7.65;;;;;;;9.78;55.16;98318.66;2618188;39;20444;-64
2022/04/21 07:09:22;;;;;;;7.82;6.97;;;;;;;9.90;54.79;98315.25;2618805;54;20034;-64
2022/04/21 07:11:52;;;;;;;11.27;6.70;;;;;;;9.99;54.41;98317.69;2618550;54;20129;-65
2022/04/21 07:14:21;;;;;;;8.32;7.28;;;;;;;10.07;54.53;98305.13;2620845;54;20046;-64
2022/04/21 07:16:51;;;;;;;7.55;6.85;;;;;;;10.17;53.65;98305.56;2619728;54;20046;-66
2022/04/21 07:19:21;;;;;;;8.43;6.90;;;;;;;10.26;53.70;98300.91;2621834;54;20034;-65
2022/04/21 07:21:51;;;;;;;11.85;7.50;;;;;;;10.36;53.34;98290.72;2621858;39;20419;-64
2022/04/21 07:24:23;;;;;;;11.30;6.53;;;;;;;10.47;53.04;98294.59;2621837;54;20026;-65
2022/04/21 07:26:53;;;;;;;10.68;7.60;;;;;;;10.52;53.23;98292.16;2621161;54;20038;-64
2022/04/21 07:29:22;;;;;;;8.32;6.00;;;;;;;10.63;53.02;98282.81;2622530;54;20542;-65
2022/04/21 07:31:53;;;;;;;7.15;5.40;;;;;;;10.74;51.95;98284.03;2622088;54;20041;-66
2022/04/21 07:34:23;;;;;;;6.88;5.45;;;;;;;10.70;52.02;98280.97;2620287;54;20103;-64
2022/04/21 07:36:53;;;;;;;7.43;5.60;;;;;;;10.76;51.42;98277.50;2618743;54;20034;-65
2022/04/21 07:39:25;;;;;;;6.78;6.07;;;;;;;10.84;51.68;98266.69;2619262;54;20026;-65
2022/04/21 07:41:57;;;;;;;8.75;5.80;;;;;;;11.00;51.35;98270.72;2618581;47;20586;-64
2022/04/21 07:44:26;;;;;;;7.30;4.85;;;;;;;10.98;51.44;98269.28;2619213;54;20037;-64
2022/04/21 07:46:56;;;;;;;10.57;5.70;;;;;;;11.08;51.22;98275.78;2619254;54;20041;-64
2022/04/21 07:54:54;;;;;;;5.90;5.30;;;;;;;11.18;51.04;98274.53;2622244;39;20415;-64
2022/04/21 07:57:24;;;;;;;5.97;4.30;;;;;;;11.31;50.76;98267.38;2618695;54;20057;-64
2022/04/21 07:59:53;;;;;;;6.45;5.05;;;;;;;11.49;50.20;98265.84;2618756;54;20030;-64
2022/04/21 08:02:23;;;;;;;6.95;4.47;;;;;;;11.56;50.28;98264.81;2618264;46;20064;-63
2022/04/21 08:04:53;;;;;;;5.85;5.13;;;;;;;11.70;49.33;98265.53;2618344;54;20078;-64
2022/04/21 08:07:23;;;;;;;5.47;4.82;;;;;;;11.65;49.04;98271.47;2617665;47;20103;-65
2022/04/21 08:09:55;;;;;;;8.18;5.38;;;;;;;11.68;48.89;98272.09;2617772;46;20038;-65
2022/04/21 08:12:25;;;;;;;9.20;6.05;;;;;;;11.70;49.34;98272.66;2618272;54;20038;-65
2022/04/21 08:14:55;;;;;;;8.55;4.88;;;;;;;11.73;49.30;98273.06;2618576;54;20041;-65
2022/04/21 08:17:24;;;;;;;7.15;5.30;;;;;;;11.84;49.00;98274.25;2618133;54;20034;-65
2022/04/21 08:19:54;;;;;;;7.68;5.30;;;;;;;11.95;48.71;98272.75;2618377;54;20030;-64
2022/04/21 08:22:23;;;;;;;7.78;5.32;;;;;;;12.04;48.55;98279.41;2617890;54;20035;-64
2022/04/21 08:33:19;;;;;;;7.82;5.60;;;;;;;12.27;48.35;98276.19;2618215;54;20082;-64
2022/04/21 08:35:50;;;;;;;7.63;5.65;;;;;;;12.31;47.94;98277.38;2618223;54;20057;-64
2022/04/21 08:38:21;;;;;;;8.25;5.15;;;;;;;12.39;47.97;98277.91;2618635;54;20046;-63
2022/04/21 08:40:55;;;;;;;6.25;5.60;;;;;;;12.51;47.57;98279.84;2618615;54;20562;-65
2022/04/21 08:43:27;;;;;;;6.18;5.38;;;;;;;12.70;47.12;98286.81;2618740;54;20550;-64
2022/04/21 08:45:57;;;;;;;6.22;4.85;;;;;;;12.76;46.32;98279.81;2618157;54;20054;-65
2022/04/21 08:48:27;;;;;;;6.93;5.18;;;;;;;12.70;46.59;98276.22;2617967;54;20034;-65
2022/04/21 08:50:57;;;;;;;6.55;4.93;;;;;;;12.83;46.64;98278.72;2618529;54;20071;-66
2022/04/21 08:53:27;;;;;;;7.80;6.20;;;;;;;12.93;46.22;98269.44;2617628;54;20034;-65
2022/04/21 08:56:00;;;;;;;11.18;7.72;;;;;;;12.94;46.46;98276.38;2618463;54;20567;-65
2022/04/21 08:58:30;;;;;;;10.35;6.07;;;;;;;12.98;45.58;98275.72;2618091;54;20039;-65
2022/04/21 09:00:59;;;;;;;10.65;6.95;;;;;;;12.92;46.00;98271.28;2619048;54;20026;-65
2022/04/21 09:03:33;;;;;;;10.52;7.68;;;;;;;12.91;46.29;98272.34;2621331;54;20060;-64
2022/04/21 09:06:03;;;;;;;8.63;5.00;;;;;;;13.04;46.36;98271.38;2621933;54;20129;-65
2022/04/21 09:08:34;;;;;;;6.88;4.10;;;;;;;13.10;45.57;98270.47;2621295;54;20031;-66
2022/04/21 09:11:08;;;;;;;6.70;4.57;;;;;;;13.14;44.89;98269.84;2621221;54;20135;-66
2022/04/21 09:13:40;;;;;;;5.35;4.85;;;;;;;13.14;44.86;98267.19;2621002;54;20026;-65
2022/04/21 09:16:12;;;;;;;5.65;4.97;;;;;;;13.07;45.28;98269.09;2621410;54;20050;-64
2022/04/21 09:18:42;;;;;;;4.63;3.90;;;;;;;13.08;44.41;98267.25;2621413;54;20019;-65
2022/04/21 09:21:14;;;;;;;4.80;4.25;;;;;;;13.23;44.66;98267.72;2622032;54;20026;-65
2022/04/21 09:23:44;;;;;;;7.18;4.38;;;;;;;13.28;44.43;98270.50;2622699;54;20026;-64
2022/04/21 09:26:20;;;;;;;6.30;5.70;;;;;;;13.28;44.73;98264.38;2622485;54;20480;-67
2022/04/21 09:28:56;;;;;;;6.57;5.00;;;;;;;13.45;44.10;98267.25;2621982;54;20589;-65
2022/04/21 09:31:29;;;;;;;6.13;4.82;;;;;;;13.56;43.41;98266.50;2622379;54;20038;-64
2022/04/21 09:33:59;;;;;;;6.63;5.43;;;;;;;13.68;43.48;98264.69;2622052;54;20030;-64
2022/04/21 09:36:31;;;;;;;6.30;5.40;;;;;;;13.85;43.14;98257.69;2620637;54;20569;-63
2022/04/21 09:39:02;;;;;;;7.43;5.53;;;;;;;14.06;42.81;98260.88;2618924;54;20045;-65
2022/04/21 09:41:34;;;;;;;13.02;9.35;;;;;;;14.20;42.57;98264.13;2619007;54;20120;-64
2022/04/21 09:46:07;;;;;;;8.02;6.32;;;;;;;14.33;42.94;98262.06;2619025;54;20041;-65
2022/04/21 09:47:07;;;;;;;7.22;5.03;;;;;;;14.40;42.31;98264.59;2618642;54;20037;-65
2022/04/21 09:49:38;;;;;;;9.50;5.43;;;;;;;14.31;42.27;98253.50;2619268;54;20031;-64
2022/04/21 09:52:08;;;;;;;7.63;4.85;;;;;;;14.37;42.69;98252.59;2619033;54;20170;-64
2022/04/21 09:54:39;;;;;;;8.23;4.90;;;;;;;14.45;42.31;98247.94;2619185;54;20082;-63
2022/04/21 09:57:12;;;;;;;6.63;4.70;;;;;;;14.47;42.38;98253.88;2618843;54;20041;-63
2022/04/21 09:59:44;;;;;;;6.90;4.18;;;;;;;14.47;41.76;98251.22;2619129;54;20039;-65
2022/04/21 10:02:14;;;;;;;4.85;3.90;;;;;;;14.49;41.88;98255.28;2618999;54;20042;-65
2022/04/21 10:04:49;;;;;;;8.77;5.15;;;;;;;14.33;42.34;98242.66;2619199;54;20037;-64
2022/04/21 10:07:20;;;;;;;7.30;4.85;;;;;;;14.41;41.94;98239.66;2618622;54;20039;-64
2022/04/21 10:09:52;;;;;;;6.72;4.30;;;;;;;14.41;41.80;98238.81;2618966;54;20042;-63
2022/04/21 10:12:24;;;;;;;5.40;4.32;;;;;;;14.44;41.00;98227.72;2618973;54;20037;-64
2022/04/21 10:14:54;;;;;;;4.57;4.18;;;;;;;14.42;41.41;98232.47;2619034;54;20045;-64
2022/04/21 10:17:24;;;;;;;7.25;4.88;;;;;;;14.51;41.01;98228.47;2618039;47;20070;-63
2022/04/21 10:19:54;;;;;;;6.50;4.80;;;;;;;14.67;41.23;98224.28;2621614;54;20602;-63
2022/04/21 10:22:28;;;;;;;5.60;3.72;;;;;;;14.62;41.73;98217.00;2621369;54;20038;-63
2022/04/21 10:24:59;;;;;;;9.15;4.80;;;;;;;14.75;41.15;98219.41;2621250;39;20396;-65
2022/04/21 10:27:40;;;;;;;4.60;4.20;;;;;;;14.68;41.30;98205.44;2620863;54;20041;-64
2022/04/21 10:30:15;;;;;;;7.07;4.03;;;;;;;14.76;40.99;98207.72;2620795;54;20129;-67
2022/04/21 10:32:53;;;;;;;4.07;3.67;;;;;;;14.65;39.73;98205.06;2621110;54;20039;-65
2022/04/21 10:35:52;;;;;;;3.53;3.05;;;;;;;14.44;39.80;98201.94;2621404;39;20427;-65
2022/04/21 10:38:28;;;;;;;3.97;3.15;;;;;;;14.34;39.74;98194.56;2621866;39;20529;-64
2022/04/21 10:41:07;;;;;;;4.60;3.08;;;;;;;14.38;39.36;98193.06;2621371;54;20044;-64
2022/04/21 10:44:08;;;;;;;5.53;3.30;;;;;;;14.65;38.78;98184.59;2621630;54;20526;-62
2022/04/21 10:46:37;;;;;;;4.80;2.95;;;;;;;14.71;38.54;98183.69;2620890;54;20045;-65
2022/04/21 10:49:53;;;;;;;6.88;3.90;;;;;;;14.71;39.54;98182.88;2620817;54;20566;-65
2022/04/21 10:58:47;;;;;;;6.60;4.55;;;;;;;15.03;40.28;98165.44;2620978;54;20037;-65
2022/04/21 11:01:22;;;;;;;3.80;3.13;;;;;;;15.41;38.27;98169.34;2620344;54;20037;-63
2022/04/21 11:04:25;;;;;;;8.90;3.20;;;;;;;15.54;37.81;98161.03;2619910;54;20659;-64
2022/04/21 11:07:13;;;;;;;5.78;3.25;;;;;;;15.66;37.04;98162.88;2619939;54;20027;-63
2022/04/21 11:09:46;;;;;;;4.72;3.13;;;;;;;15.64;37.09;98170.28;2620700;39;20427;-64
2022/04/21 11:12:49;;;;;;;4.85;3.28;;;;;;;15.48;37.60;98163.88;2620335;54;20037;-64
2022/04/21 11:15:33;;;;;;;;;;;;;;;15.35;38.04;98159.66;2620314;54;20029;-63
2022/04/21 11:18:09;;;;;;;5.03;3.67;;;;;;;15.49;38.10;98146.84;2619442;54;19938;-64
2022/04/21 11:20:41;;;;;;;8.18;3.78;;;;;;;15.47;37.78;98149.75;2619669;54;20026;-64
2022/04/21 11:23:12;;;;;;;4.88;3.30;;;;;;;15.39;37.31;98150.13;2620101;54;20042;-65
2022/04/21 11:25:45;;;;;;;5.47;3.53;;;;;;;15.29;37.94;98145.41;2620051;54;20571;-64
2022/04/21 11:28:16;;;;;;;4.55;3.70;;;;;;;15.34;38.21;98145.50;2619583;54;20038;-66
2022/04/21 11:30:46;;;;;;;5.20;3.03;;;;;;;15.42;37.48;98148.81;2619791;54;20033;-64
2022/04/21 11:33:19;;;;;;;6.85;2.85;;;;;;;15.26;37.84;98139.75;2620139;54;20027;-65
2022/04/21 11:35:48;;;;;;;7.18;3.55;;;;;;;15.22;38.44;98138.63;2620705;54;20046;-63
2022/04/21 11:38:18;;;;;;;5.97;3.17;;;;;;;15.28;38.84;98135.00;2620086;54;20543;-63
2022/04/21 11:40:47;;;;;;;3.92;3.38;;;;;;;15.34;38.41;98140.19;2621080;54;20031;-63
2022/04/21 11:43:18;;;;;;;6.85;3.15;;;;;;;15.46;38.32;98136.66;2620377;54;20039;-64
2022/04/21 11:45:59;;;;;;;6.00;3.53;;;;;;;15.48;38.46;98137.22;2621182;39;20404;-64
2022/04/21 11:48:37;;;;;;;3.63;3.33;;;;;;;15.46;38.11;98142.78;2620385;54;20082;-64
2022/04/21 11:51:07;;;;;;;4.97;3.58;;;;;;;15.35;38.65;98131.16;2620582;54;20038;-64
2022/04/21 11:53:40;;;;;;;5.65;3.75;;;;;;;15.33;38.98;98125.25;2620867;54;20033;-64
2022/04/21 11:56:11;;;;;;;;;;;;;;;15.40;38.80;98130.44;2620941;54;20145;-64
2022/04/21 11:58:44;;;;;;;4.50;3.25;;;;;;;15.61;38.40;98136.91;2620177;54;19939;-63
2022/04/21 12:06:48;;;;;;;4.22;3.83;;;;;;;15.66;38.73;98122.91;2620439;54;19947;-63
2022/04/21 12:09:24;;;;;;;4.50;3.30;;;;;;;15.68;38.70;98108.31;2620371;54;20035;-64
2022/04/21 12:11:54;;;;;;;6.70;4.00;;;;;;;15.82;38.29;98100.78;2620092;54;20613;-64
2022/04/21 12:14:25;;;;;;;5.47;3.15;;;;;;;15.75;38.38;98095.59;2620382;54;20042;-64
2022/04/21 12:16:55;;;;;;;5.63;4.20;;;;;;;15.99;38.76;98090.09;2619571;54;20042;-64
2022/04/21 12:19:38;;;;;;;5.32;3.88;;;;;;;16.30;37.97;98097.47;2620075;54;20030;-63
2022/04/21 12:22:10;;;;;;;5.10;4.60;;;;;;;16.39;37.31;98091.72;2619339;50;20034;-63
2022/04/21 12:24:42;;;;;;;7.70;3.80;;;;;;;16.13;37.98;98085.25;2619984;54;20090;-65
2022/04/21 12:27:16;;;;;;;7.07;3.92;;;;;;;16.09;38.12;98080.38;2619627;54;20043;-63
2022/04/21 12:29:51;;;;;;;5.75;3.60;;;;;;;16.34;38.22;98084.44;2620489;54;20531;-65
2022/04/21 12:32:24;;;;;;;5.22;3.60;;;;;;;16.58;37.10;98079.69;2620169;54;20168;-65
2022/04/21 12:34:58;;;;;;;5.13;4.22;;;;;;;16.49;36.86;98073.16;2620013;47;20045;-65
2022/04/21 12:37:28;;;;;;;5.05;4.13;;;;;;;16.50;37.07;98069.44;2619761;54;20061;-64
2022/04/21 12:40:00;;;;;;;6.82;4.22;;;;;;;16.55;37.48;98059.63;2620130;54;20604;-63
2022/04/21 12:42:50;;;;;;;5.28;3.90;;;;;;;16.57;37.81;98048.69;2620118;54;20049;-66
2022/04/21 12:45:20;;;;;;;5.90;5.28;;;;;;;16.78;37.24;98057.78;2619572;54;20031;-65
2022/04/21 16:35:26;;;;;;;4.00;2.35;;;;;;;14.72;41.97;97987.63;2591634;46;20035;-64
2022/04/21 16:37:55;;;;;;;2.50;2.30;;;;;;;14.72;41.92;97990.28;2619234;51;20038;-63
2022/04/21 16:40:25;;;;;;;3.33;2.28;;;;;;;14.73;42.12;97982.06;2620354;39;20450;-64
2022/04/21 16:42:55;;;;;;;4.50;2.90;;;;;;;14.75;42.27;97979.97;2620324;54;20042;-65
2022/04/21 16:45:25;;;;;;;4.13;2.63;;;;;;;14.81;41.78;97972.88;2620749;54;20026;-63